Terminal Aerodrome Forecast
Issued by NWS

Home | Current Version | Previous Version | Text Only | Print | Product List | Glossary On
Versions: 1 2 3 4 5 6 7 8 9 10 11 12 13 14 15 16 17 18 19 20 21 22 23 24 25
000
FTUS41 KPHI 221500 AAA
TAFMIV
TAF AMD
KMIV 221507Z 2215/2312 19006KT P6SM SCT035
     FM222100 16003KT P6SM FEW250
     FM230900 00000KT 3SM BR FEW250=

USA.gov is the U.S. government's official web portal to all federal, state and local government web resources and services.